createdAt,value
2023-02-13T00:00:39.541Z,20.13
2023-02-13T00:03:07.683Z,21.37
2023-02-13T00:05:35.776Z,20.50
2023-02-13T00:08:03.916Z,21.67
2023-02-13T00:10:32.029Z,21.20
2023-02-13T00:13:01.454Z,20.80
2023-02-13T00:15:29.583Z,21.80
2023-02-13T00:17:57.650Z,22.10
2023-02-13T00:20:26.041Z,23.60
2023-02-13T00:22:54.120Z,22.37
2023-02-13T00:25:22.241Z,21.30
2023-02-13T00:27:52.140Z,20.70
2023-02-13T00:30:22.757Z,21.33
2023-02-13T00:32:51.831Z,20.37
2023-02-13T00:35:19.892Z,20.93
2023-02-13T00:37:47.948Z,21.90
2023-02-13T00:40:16.073Z,22.10
2023-02-13T00:42:44.150Z,21.20
2023-02-13T00:45:12.208Z,21.47
2023-02-13T00:47:41.610Z,22.20
2023-02-13T00:50:10.306Z,22.90
2023-02-13T00:52:38.402Z,23.47
2023-02-13T00:55:07.292Z,22.60
2023-02-13T00:57:35.305Z,21.77
2023-02-13T01:00:04.750Z,22.70
2023-02-13T01:02:38.738Z,23.10
2023-02-13T01:05:08.860Z,22.00
2023-02-13T01:07:36.914Z,22.40
2023-02-13T01:10:05.311Z,22.20
2023-02-13T01:12:33.471Z,22.40
2023-02-13T01:15:01.579Z,22.13
2023-02-13T01:17:29.652Z,23.90
2023-02-13T01:19:58.762Z,23.10
2023-02-13T01:22:28.191Z,22.60
2023-02-13T01:24:56.291Z,23.77
2023-02-13T01:27:24.393Z,22.83
2023-02-13T01:29:52.470Z,23.97
2023-02-13T01:32:20.589Z,23.70
2023-02-13T01:34:48.835Z,23.93
2023-02-13T01:37:16.936Z,24.00
2023-02-13T01:39:46.378Z,24.57
2023-02-13T01:42:17.573Z,23.63
2023-02-13T01:44:53.567Z,23.40
2023-02-13T01:47:27.420Z,23.23
2023-02-13T01:50:06.261Z,23.17
2023-02-13T01:52:35.187Z,23.17
2023-02-13T01:55:06.053Z,23.27
2023-02-13T01:57:34.935Z,23.60
2023-02-13T02:00:07.533Z,24.00
2023-02-13T02:02:40.814Z,24.47
2023-02-13T02:05:11.021Z,24.60
2023-02-13T02:07:40.548Z,23.43
2023-02-13T02:10:15.178Z,24.93
2023-02-13T02:12:47.694Z,24.50
2023-02-13T02:15:15.838Z,23.27
2023-02-13T02:17:43.885Z,24.27
2023-02-13T02:20:24.934Z,24.20
2023-02-13T02:23:31.769Z,23.60
2023-02-13T02:26:35.769Z,25.13
2023-02-13T02:29:36.586Z,23.53
2023-02-13T02:32:29.144Z,26.13
2023-02-13T02:35:10.931Z,24.47
2023-02-13T02:37:53.479Z,25.03
2023-02-13T02:40:28.265Z,25.17
2023-02-13T02:43:18.210Z,25.17
2023-02-13T02:45:54.654Z,25.33
2023-02-13T02:48:49.070Z,25.77
2023-02-13T02:51:22.798Z,25.03
2023-02-13T02:54:02.838Z,24.80
2023-02-13T02:56:38.768Z,25.17
2023-02-13T02:59:37.957Z,25.57
2023-02-13T03:02:25.345Z,24.93
2023-02-13T03:05:15.246Z,24.87
2023-02-13T03:07:43.294Z,24.80
2023-02-13T03:10:31.579Z,25.10
2023-02-13T03:13:21.858Z,25.97
2023-02-13T03:16:09.954Z,26.13
2023-02-13T03:18:59.469Z,25.27
2023-02-13T03:21:56.263Z,25.00
2023-02-13T03:24:29.792Z,26.70
2023-02-13T03:27:07.105Z,25.57
2023-02-13T03:30:03.074Z,25.47
2023-02-13T03:32:40.596Z,26.33
2023-02-13T03:35:43.318Z,26.50
2023-02-13T03:38:18.557Z,25.40
2023-02-13T03:41:10.480Z,26.10
2023-02-13T03:43:46.337Z,24.60
2023-02-13T03:46:15.610Z,27.03
2023-02-13T03:49:03.110Z,25.97
2023-02-13T03:51:35.982Z,25.13
2023-02-13T03:54:08.370Z,25.27
2023-02-13T03:56:55.519Z,25.80
2023-02-13T03:59:28.437Z,25.97
2023-02-13T04:02:05.010Z,25.23
2023-02-13T04:04:40.553Z,24.97
2023-02-13T04:07:11.795Z,25.77
2023-02-13T04:09:44.309Z,24.30
2023-02-13T04:12:18.886Z,24.70
2023-02-13T04:14:51.897Z,24.07
2023-02-13T04:17:27.106Z,24.77
2023-02-13T04:19:55.748Z,24.90
2023-02-13T04:22:23.750Z,24.30
2023-02-13T04:24:53.252Z,25.07
2023-02-13T04:27:21.501Z,25.43
2023-02-13T04:29:49.601Z,24.83
2023-02-13T04:32:17.648Z,25.90
2023-02-13T04:34:45.667Z,25.70
2023-02-13T04:37:13.715Z,25.37
2023-02-13T04:39:41.785Z,25.80
2023-02-13T04:42:11.206Z,26.67
2023-02-13T04:44:39.306Z,25.90
2023-02-13T04:47:07.341Z,27.60
2023-02-13T04:49:35.419Z,26.63
2023-02-13T04:52:03.480Z,26.50
2023-02-13T04:54:31.550Z,27.03
2023-02-13T04:56:59.633Z,26.60
2023-02-13T04:59:29.060Z,27.43
2023-02-13T05:01:59.185Z,29.17
2023-02-13T05:04:28.867Z,30.23
2023-02-13T05:06:57.030Z,27.67
2023-02-13T05:09:25.203Z,28.53
2023-02-13T05:11:54.006Z,30.50
2023-02-13T05:14:22.348Z,28.47
2023-02-13T05:16:51.810Z,27.63
2023-02-13T05:19:19.702Z,27.23
2023-02-13T05:22:05.150Z,29.60
2023-02-13T05:24:33.195Z,29.03
2023-02-13T05:27:01.280Z,30.30
2023-02-13T05:29:29.347Z,31.13
2023-02-13T05:32:00.820Z,30.80
2023-02-13T05:34:30.060Z,31.10
2023-02-13T05:36:58.191Z,30.90
2023-02-13T05:39:26.256Z,32.27
2023-02-13T05:41:54.373Z,29.90
2023-02-13T05:44:22.431Z,31.53
2023-02-13T05:46:50.531Z,31.53
2023-02-13T05:49:20.212Z,31.87
2023-02-13T05:51:48.240Z,32.70
2023-02-13T05:54:16.672Z,32.13
2023-02-13T05:56:45.107Z,33.00
2023-02-13T05:59:13.448Z,32.83
2023-02-13T06:01:41.882Z,31.77
2023-02-13T06:04:10.017Z,32.93
2023-02-13T06:06:39.533Z,35.20
2023-02-13T06:09:07.622Z,33.07
2023-02-13T06:11:36.391Z,35.10
2023-02-13T06:14:04.701Z,34.97
2023-02-13T06:16:32.742Z,34.53
2023-02-13T06:19:00.649Z,35.23
2023-02-13T06:21:28.682Z,34.80
2023-02-13T06:23:58.106Z,35.23
2023-02-13T06:26:26.244Z,37.30
2023-02-13T06:28:54.329Z,39.47
2023-02-13T06:31:22.775Z,40.60
2023-02-13T06:33:50.934Z,39.27
2023-02-13T06:36:18.971Z,42.73
2023-02-13T06:38:47.033Z,42.40
2023-02-13T06:41:16.520Z,44.33
2023-02-13T06:43:44.585Z,45.90
2023-02-13T06:46:12.743Z,47.83
2023-02-13T06:48:40.889Z,46.27
2023-02-13T06:51:08.941Z,46.90
2023-02-13T06:53:37.023Z,47.23
2023-02-13T06:56:06.269Z,46.93
2023-02-13T06:58:36.108Z,50.10
2023-02-13T07:01:04.353Z,48.30
2023-02-13T07:03:32.674Z,51.37
2023-02-13T07:06:01.410Z,53.07
2023-02-13T07:08:29.526Z,54.17
2023-02-13T07:10:58.408Z,54.60
2023-02-13T07:13:26.616Z,57.17
2023-02-13T07:15:58.294Z,57.90
2023-02-13T07:18:26.864Z,61.03
2023-02-13T07:20:55.156Z,59.40
2023-02-13T07:23:23.401Z,60.60
2023-02-13T07:25:51.476Z,58.63
2023-02-13T07:28:19.580Z,59.37
2023-02-13T07:30:47.650Z,58.77
2023-02-13T07:33:17.045Z,61.00
2023-02-13T07:35:48.047Z,61.60
2023-02-13T07:38:16.066Z,66.50
2023-02-13T07:40:44.360Z,66.97
2023-02-13T07:43:14.557Z,67.70
2023-02-13T07:45:42.646Z,68.93
2023-02-13T07:48:10.698Z,66.30
2023-02-13T07:50:40.168Z,67.23
2023-02-13T07:53:08.230Z,70.27
2023-02-13T07:55:38.364Z,68.87
2023-02-13T07:58:06.688Z,74.53
2023-02-13T08:00:34.940Z,73.23
2023-02-13T08:03:03.344Z,76.43
2023-02-13T08:05:33.200Z,77.70
2023-02-13T08:08:02.592Z,79.73
2023-02-13T08:10:48.004Z,81.17
2023-02-13T08:13:17.147Z,79.23
2023-02-13T08:15:45.515Z,79.57
2023-02-13T08:18:13.633Z,83.13
2023-02-13T08:20:41.657Z,82.13
2023-02-13T08:23:12.323Z,80.93
2023-02-13T08:25:41.709Z,77.97
2023-02-13T08:28:09.797Z,77.23
2023-02-13T08:30:38.098Z,73.30
2023-02-13T08:33:06.159Z,68.33
2023-02-13T08:35:34.294Z,66.20
2023-02-13T08:38:06.058Z,65.60
2023-02-13T08:40:35.629Z,59.43
2023-02-13T08:43:05.020Z,59.53
2023-02-13T08:45:34.534Z,57.00
2023-02-13T08:48:04.436Z,57.43
2023-02-13T08:50:32.991Z,54.90
2023-02-13T08:53:01.632Z,54.80
2023-02-13T08:55:31.518Z,53.83
2023-02-13T08:58:02.755Z,53.70
2023-02-13T09:00:31.277Z,54.17
2023-02-13T09:03:02.103Z,49.70
2023-02-13T09:05:31.677Z,47.50
2023-02-13T09:08:02.743Z,43.80
2023-02-13T09:10:30.897Z,41.80
2023-02-13T09:12:59.112Z,39.67
2023-02-13T09:15:28.638Z,38.47
2023-02-13T09:17:56.767Z,36.23
2023-02-13T09:20:24.829Z,34.30
2023-02-13T09:22:52.878Z,36.23
2023-02-13T09:25:21.738Z,34.47
2023-02-13T09:27:49.917Z,35.80
2023-02-13T09:30:23.584Z,34.87
2023-02-13T09:32:54.286Z,33.70
2023-02-13T09:35:23.713Z,30.80
2023-02-13T09:37:51.769Z,30.00
2023-02-13T09:40:26.646Z,29.17
2023-02-13T09:43:06.234Z,27.80
2023-02-13T09:45:35.075Z,25.70
2023-02-13T09:48:06.841Z,25.50
2023-02-13T09:50:35.953Z,23.80
2023-02-13T09:53:05.795Z,24.10
2023-02-13T09:55:47.307Z,24.00
2023-02-13T09:58:21.508Z,24.20
2023-02-13T10:00:54.722Z,24.30
2023-02-13T10:03:30.637Z,23.37
2023-02-13T10:06:08.454Z,24.00
2023-02-13T10:08:50.920Z,22.60
2023-02-13T10:11:35.274Z,22.93
2023-02-13T10:14:11.676Z,21.33
2023-02-13T10:16:44.475Z,20.97
2023-02-13T10:19:24.109Z,21.60
2023-02-13T10:21:55.705Z,20.97
2023-02-13T10:24:32.577Z,22.10
2023-02-13T10:27:04.910Z,20.80
2023-02-13T10:29:57.803Z,21.10
2023-02-13T10:32:31.139Z,22.73
2023-02-13T10:35:03.423Z,20.93
2023-02-13T10:37:31.757Z,22.17
2023-02-13T10:39:59.937Z,21.07
2023-02-13T10:42:42.593Z,21.30
2023-02-13T10:45:32.176Z,20.50
2023-02-13T10:48:13.302Z,20.50
2023-02-13T10:50:52.359Z,19.07
2023-02-13T10:53:27.968Z,17.90
2023-02-13T10:56:17.561Z,18.97
2023-02-13T10:58:59.507Z,17.70
2023-02-13T11:01:33.694Z,17.90
2023-02-13T11:04:10.843Z,17.97
2023-02-13T11:06:44.138Z,17.83
2023-02-13T11:09:13.591Z,17.17
2023-02-13T11:11:43.935Z,18.73
2023-02-13T11:14:15.940Z,17.40
2023-02-13T11:16:58.565Z,17.50
2023-02-13T11:19:32.426Z,17.00
2023-02-13T11:22:05.812Z,17.50
2023-02-13T11:24:34.777Z,16.50
2023-02-13T11:27:08.733Z,16.80
2023-02-13T11:29:39.100Z,16.53
2023-02-13T11:32:19.258Z,16.40
2023-02-13T11:34:48.339Z,16.93
2023-02-13T11:37:21.442Z,17.63
2023-02-13T11:39:51.569Z,17.13
2023-02-13T11:42:25.903Z,16.17
2023-02-13T11:44:56.789Z,16.20
2023-02-13T11:47:40.083Z,17.33
2023-02-13T11:50:22.502Z,16.70
2023-02-13T11:53:01.075Z,17.13
2023-02-13T11:55:32.881Z,16.80
2023-02-13T11:58:03.441Z,16.17
2023-02-13T12:00:37.666Z,17.17
2023-02-13T12:03:27.270Z,17.60
2023-02-13T12:06:03.908Z,17.80
2023-02-13T12:08:36.000Z,18.60
2023-02-13T12:11:09.158Z,19.10
2023-02-13T12:13:39.831Z,17.50
2023-02-13T12:16:15.441Z,17.33
2023-02-13T12:18:46.151Z,16.37
2023-02-13T12:21:30.281Z,18.20
2023-02-13T12:24:12.176Z,16.97
2023-02-13T12:26:43.834Z,16.07
2023-02-13T12:29:35.816Z,17.60
2023-02-13T12:32:18.502Z,16.57
2023-02-13T12:35:01.884Z,16.80
2023-02-13T12:37:48.808Z,16.50
2023-02-13T12:40:40.830Z,17.57
2023-02-13T12:43:30.616Z,16.23
2023-02-13T12:46:06.223Z,16.40
2023-02-13T12:48:41.327Z,17.67
2023-02-13T12:51:26.931Z,16.90
2023-02-13T12:54:07.008Z,17.03
2023-02-13T12:57:03.303Z,16.83
2023-02-13T12:59:42.637Z,16.50
2023-02-13T13:02:44.286Z,16.40
2023-02-13T13:05:27.298Z,16.43
2023-02-13T13:08:16.475Z,16.60
2023-02-13T13:10:54.306Z,17.93
2023-02-13T13:13:39.329Z,16.90
2023-02-13T13:16:17.862Z,16.80
2023-02-13T13:19:00.591Z,16.47
2023-02-13T13:21:40.671Z,16.60
2023-02-13T13:24:23.339Z,16.97
2023-02-13T13:26:54.204Z,16.30
2023-02-13T13:29:27.222Z,16.00
2023-02-13T13:31:58.696Z,16.00
2023-02-13T13:34:28.336Z,16.23
2023-02-13T13:37:03.561Z,16.43
2023-02-13T13:39:40.936Z,16.33
2023-02-13T13:42:16.992Z,16.60
2023-02-13T13:45:10.146Z,17.23
2023-02-13T13:47:54.395Z,16.60
2023-02-13T13:50:26.612Z,17.30
2023-02-13T13:53:11.164Z,16.67
2023-02-13T13:56:05.883Z,16.37
2023-02-13T13:58:40.942Z,17.40
2023-02-13T14:01:35.106Z,17.90
2023-02-13T14:04:24.864Z,17.00
2023-02-13T14:07:23.086Z,16.07
2023-02-13T14:09:51.444Z,16.70
2023-02-13T14:12:39.812Z,16.20
2023-02-13T14:15:51.608Z,16.00
2023-02-13T14:18:24.537Z,16.93
2023-02-13T14:20:55.440Z,16.37
2023-02-13T14:23:50.010Z,17.20
2023-02-13T14:26:35.322Z,16.70
2023-02-13T14:29:25.065Z,17.77
2023-02-13T14:32:04.093Z,17.50
2023-02-13T14:34:36.453Z,18.63
2023-02-13T14:37:21.063Z,17.20
2023-02-13T14:40:28.569Z,17.60
2023-02-13T14:42:59.872Z,17.40
2023-02-13T14:45:32.305Z,17.50
2023-02-13T14:48:08.977Z,18.03
2023-02-13T14:50:46.880Z,16.83
2023-02-13T14:53:22.522Z,16.70
2023-02-13T14:55:57.625Z,17.00
2023-02-13T14:58:30.587Z,16.93
2023-02-13T15:01:03.196Z,17.20
2023-02-13T15:03:38.100Z,17.40
2023-02-13T15:06:15.801Z,18.47
2023-02-13T15:08:49.641Z,18.80
2023-02-13T15:11:39.416Z,17.40
2023-02-13T15:14:18.658Z,17.93
2023-02-13T15:16:49.757Z,18.77
2023-02-13T15:19:20.437Z,17.10
2023-02-13T15:21:53.560Z,17.53
2023-02-13T15:24:26.344Z,17.33
2023-02-13T15:27:03.239Z,18.03
2023-02-13T15:29:44.200Z,17.50
2023-02-13T15:32:22.916Z,17.47
2023-02-13T15:34:51.261Z,17.63
2023-02-13T15:37:26.153Z,17.07
2023-02-13T15:39:54.186Z,18.40
2023-02-13T15:42:22.784Z,18.27
2023-02-13T15:44:55.140Z,17.20
2023-02-13T15:47:29.361Z,17.50
2023-02-13T15:49:57.703Z,16.77
2023-02-13T15:52:32.871Z,17.00
2023-02-13T15:55:01.074Z,17.50
2023-02-13T15:57:30.004Z,16.70
2023-02-13T15:59:59.864Z,18.07
2023-02-13T16:02:37.619Z,17.40
2023-02-13T16:05:07.687Z,17.97
2023-02-13T16:07:50.201Z,17.70
2023-02-13T16:10:20.031Z,18.30
2023-02-13T16:12:49.348Z,18.50
2023-02-13T16:15:20.382Z,18.00
2023-02-13T16:17:49.540Z,17.80
2023-02-13T16:20:23.629Z,19.87
2023-02-13T16:22:54.733Z,18.40
2023-02-13T16:25:26.151Z,18.13
2023-02-13T16:27:57.401Z,17.50
2023-02-13T16:30:33.137Z,17.63
2023-02-13T16:33:28.759Z,17.60
2023-02-13T16:35:58.395Z,17.40
2023-02-13T16:38:38.286Z,19.53
2023-02-13T16:41:07.932Z,18.23
2023-02-13T16:43:41.773Z,18.33
2023-02-13T16:46:20.246Z,18.80
2023-02-13T16:48:59.290Z,17.77
2023-02-13T16:51:35.742Z,17.00
2023-02-13T16:54:07.822Z,18.63
2023-02-13T16:56:41.449Z,18.10
2023-02-13T16:59:24.401Z,18.80
2023-02-13T17:02:05.001Z,19.10
2023-02-13T17:04:33.104Z,19.17
2023-02-13T17:07:01.121Z,19.67
2023-02-13T17:09:30.609Z,19.80
2023-02-13T17:11:58.614Z,20.27
2023-02-13T17:14:26.698Z,22.30
2023-02-13T17:16:54.855Z,21.83
2023-02-13T17:19:23.057Z,21.17
2023-02-13T17:21:53.379Z,21.23
2023-02-13T17:24:21.445Z,20.33
2023-02-13T17:26:50.850Z,20.53
2023-02-13T17:29:18.926Z,20.93
2023-02-13T17:31:47.099Z,20.87
2023-02-13T17:34:15.167Z,22.67
2023-02-13T17:36:43.280Z,21.70
2023-02-13T17:39:11.308Z,24.60
2023-02-13T17:41:42.781Z,23.70
2023-02-13T17:44:13.757Z,24.33
2023-02-13T17:46:41.936Z,21.67
2023-02-13T17:49:09.938Z,25.43
2023-02-13T17:51:40.483Z,25.53
2023-02-13T17:54:12.443Z,26.40
2023-02-13T17:56:40.507Z,25.77
2023-02-13T17:59:08.651Z,27.03
2023-02-13T18:01:38.215Z,28.47
2023-02-13T18:04:06.489Z,29.30
2023-02-13T18:06:34.527Z,31.20
2023-02-13T18:09:02.638Z,31.00
2023-02-13T18:11:31.205Z,32.63
2023-02-13T18:13:59.245Z,35.75
2023-02-13T18:16:27.373Z,35.07
2023-02-13T18:18:57.689Z,37.17
2023-02-13T18:21:25.771Z,33.40
2023-02-13T18:23:54.340Z,31.10
2023-02-13T18:26:23.534Z,32.57
2023-02-13T18:28:53.049Z,30.93
2023-02-13T18:31:21.325Z,32.03
2023-02-13T18:33:50.192Z,31.80
2023-02-13T18:36:20.118Z,29.87
2023-02-13T18:38:48.504Z,31.07
2023-02-13T18:41:16.569Z,31.00
2023-02-13T18:43:45.057Z,32.13
2023-02-13T18:46:13.965Z,33.27
2023-02-13T18:48:42.146Z,33.47
2023-02-13T18:51:10.174Z,35.50
2023-02-13T18:53:39.827Z,34.30
2023-02-13T18:56:09.822Z,33.90
2023-02-13T18:58:38.041Z,34.77
2023-02-13T19:01:07.890Z,38.63
2023-02-13T19:03:37.229Z,41.80
2023-02-13T19:06:08.331Z,44.20
2023-02-13T19:08:36.773Z,49.83
2023-02-13T19:11:07.469Z,55.43
2023-02-13T19:13:35.665Z,59.57
2023-02-13T19:16:07.687Z,61.17
2023-02-13T19:18:37.318Z,63.53
2023-02-13T19:21:06.563Z,65.30
2023-02-13T19:23:35.406Z,69.27
2023-02-13T19:26:08.605Z,69.20
2023-02-13T19:28:37.230Z,70.10
2023-02-13T19:31:08.529Z,72.47
2023-02-13T19:33:39.128Z,72.20
2023-02-13T19:36:11.854Z,76.40
2023-02-13T19:38:41.251Z,73.00
2023-02-13T19:41:13.403Z,71.10
2023-02-13T19:43:42.009Z,72.80
2023-02-13T19:46:13.224Z,73.47
2023-02-13T19:48:41.790Z,71.20
2023-02-13T19:51:11.044Z,65.77
2023-02-13T19:53:39.707Z,67.07
2023-02-13T19:56:10.897Z,70.30
2023-02-13T19:58:40.528Z,68.60
2023-02-13T20:01:09.677Z,69.87
2023-02-13T20:03:37.838Z,71.07
2023-02-13T20:06:08.142Z,72.87
2023-02-13T20:08:36.568Z,71.37
2023-02-13T20:11:07.011Z,74.10
2023-02-13T20:13:36.458Z,74.50
2023-02-13T20:16:06.256Z,75.57
2023-02-13T20:18:34.728Z,76.67
2023-02-13T20:21:06.808Z,75.03
2023-02-13T20:23:35.035Z,76.43
2023-02-13T20:26:06.623Z,74.70
2023-02-13T20:28:36.013Z,72.63
2023-02-13T20:31:10.465Z,75.07
2023-02-13T20:33:39.325Z,75.50
2023-02-13T20:36:11.685Z,72.50
2023-02-13T20:38:39.953Z,72.57
2023-02-13T20:41:12.191Z,73.23
2023-02-13T20:43:41.894Z,75.60
2023-02-13T20:46:10.258Z,81.40
2023-02-13T20:48:39.129Z,80.57
2023-02-13T20:51:09.680Z,77.07
2023-02-13T20:53:37.975Z,82.97
2023-02-13T20:56:07.708Z,82.67
2023-02-13T20:58:35.873Z,81.83
2023-02-13T21:01:11.719Z,80.33
2023-02-13T21:03:39.948Z,80.80
2023-02-13T21:06:09.110Z,84.70
2023-02-13T21:08:38.171Z,79.80
2023-02-13T21:11:08.010Z,78.10
2023-02-13T21:13:36.778Z,76.00
2023-02-13T21:16:08.490Z,74.97
2023-02-13T21:18:36.704Z,75.23
2023-02-13T21:21:05.513Z,75.40
2023-02-13T21:23:34.219Z,77.10
2023-02-13T21:26:03.757Z,71.77
2023-02-13T21:28:32.397Z,72.60
2023-02-13T21:31:05.557Z,71.67
2023-02-13T21:33:35.067Z,73.30
2023-02-13T21:36:04.448Z,77.20
2023-02-13T21:38:32.500Z,72.83
2023-02-13T21:41:06.384Z,75.27
2023-02-13T21:43:37.629Z,74.73
2023-02-13T21:46:10.342Z,78.03
2023-02-13T21:48:40.496Z,76.33
2023-02-13T21:51:09.859Z,74.93
2023-02-13T21:53:38.267Z,77.27
2023-02-13T21:56:07.812Z,75.63
2023-02-13T21:58:37.177Z,77.33
2023-02-13T22:01:17.435Z,78.60
2023-02-13T22:03:54.946Z,81.20
2023-02-13T22:06:23.133Z,79.33
2023-02-13T22:08:56.291Z,78.80
2023-02-13T22:11:24.727Z,79.90
2023-02-13T22:13:56.611Z,79.10
2023-02-13T22:16:25.399Z,79.87
2023-02-13T22:18:55.599Z,79.17
2023-02-13T22:21:25.497Z,81.93
2023-02-13T22:23:53.987Z,82.13
2023-02-13T22:26:23.936Z,83.63
2023-02-13T22:28:53.105Z,83.53
2023-02-13T22:31:25.255Z,84.20
2023-02-13T22:34:03.513Z,85.70
2023-02-13T22:36:32.702Z,86.33
2023-02-13T22:39:00.777Z,86.70
2023-02-13T22:41:29.262Z,87.17
2023-02-13T22:43:58.155Z,86.13
2023-02-13T22:46:28.545Z,86.13
2023-02-13T22:48:58.388Z,86.30
2023-02-13T22:51:29.632Z,88.17
2023-02-13T22:53:58.650Z,85.93
2023-02-13T22:56:28.082Z,86.30
2023-02-13T22:58:56.164Z,86.13
2023-02-13T23:01:26.134Z,89.97
2023-02-13T23:03:54.415Z,84.00
2023-02-13T23:06:24.770Z,84.93
2023-02-13T23:08:53.649Z,85.97
2023-02-13T23:11:41.548Z,87.80
2023-02-13T23:14:10.528Z,86.80
2023-02-13T23:16:53.124Z,86.97
2023-02-13T23:19:21.821Z,88.10
2023-02-13T23:21:52.264Z,90.27
2023-02-13T23:24:20.326Z,93.70
2023-02-13T23:26:48.385Z,95.00
2023-02-13T23:29:16.462Z,92.33
2023-02-13T23:31:44.630Z,93.83
2023-02-13T23:34:12.839Z,94.67
2023-02-13T23:36:41.313Z,95.43
2023-02-13T23:39:10.709Z,93.70
2023-02-13T23:41:38.786Z,92.50
2023-02-13T23:44:06.814Z,91.50
2023-02-13T23:46:34.967Z,90.83
2023-02-13T23:49:05.551Z,92.47
2023-02-13T23:51:35.218Z,94.27
2023-02-13T23:54:03.359Z,93.87
2023-02-13T23:56:32.748Z,92.97
2023-02-13T23:59:02.869Z,91.97
